createdAt,value
2017-12-10T00:01:29.121Z,21.57
2017-12-10T00:04:08.771Z,20.43
2017-12-10T00:06:43.427Z,19.97
2017-12-10T00:09:19.691Z,20.73
2017-12-10T00:11:48.597Z,19.13
2017-12-10T00:14:21.931Z,21.10
2017-12-10T00:16:50.853Z,21.37
2017-12-10T00:19:33.285Z,20.40
2017-12-10T00:24:55.930Z,18.50
2017-12-10T00:27:34.583Z,19.33
2017-12-10T00:30:03.501Z,18.97
2017-12-10T00:32:42.429Z,18.00
2017-12-10T00:35:14.614Z,17.83
2017-12-10T00:37:53.245Z,17.77
2017-12-10T00:40:32.201Z,17.73
2017-12-10T00:43:10.971Z,17.50
2017-12-10T00:45:56.347Z,16.47
2017-12-10T00:48:32.638Z,17.87
2017-12-10T00:51:07.436Z,15.60
2017-12-10T00:53:50.813Z,18.60
2017-12-10T00:56:19.761Z,17.27
2017-12-10T00:58:58.509Z,16.23
2017-12-10T01:01:41.713Z,17.30
2017-12-10T01:04:17.665Z,16.00
2017-12-10T01:06:57.400Z,16.53
2017-12-10T01:09:32.304Z,15.77
2017-12-10T01:12:07.023Z,16.27
2017-12-10T01:14:36.931Z,14.53
2017-12-10T01:17:13.663Z,15.77
2017-12-10T01:19:50.909Z,15.00
2017-12-10T01:22:19.841Z,15.00
2017-12-10T01:24:48.819Z,14.20
2017-12-10T01:33:06.243Z,14.13
2017-12-10T01:38:30.827Z,14.37
2017-12-10T01:40:59.763Z,15.10
2017-12-10T01:46:20.175Z,14.77
2017-12-10T01:48:56.905Z,15.33
2017-12-10T01:51:29.756Z,14.93
2017-12-10T01:54:11.863Z,13.67
2017-12-10T01:56:43.691Z,12.67
2017-12-10T01:59:20.746Z,12.93
2017-12-10T02:01:55.359Z,12.07
2017-12-10T02:04:32.294Z,11.83
2017-12-10T02:07:03.157Z,11.90
2017-12-10T02:09:47.378Z,12.00
2017-12-10T02:12:16.349Z,12.27
2017-12-10T02:14:52.137Z,12.20
2017-12-10T02:17:29.821Z,12.30
2017-12-10T02:19:59.725Z,12.17
2017-12-10T02:22:28.637Z,12.30
2017-12-10T02:24:57.597Z,12.67
2017-12-10T02:30:26.638Z,11.13
2017-12-10T02:33:10.463Z,10.77
2017-12-10T02:35:46.841Z,11.37
2017-12-10T02:38:30.891Z,11.80
2017-12-10T02:41:06.273Z,10.57
2017-12-10T02:43:52.449Z,11.27
2017-12-10T02:46:27.149Z,11.67
2017-12-10T02:49:00.078Z,11.00
2017-12-10T02:51:39.311Z,10.53
2017-12-10T02:54:18.903Z,9.80
2017-12-10T02:59:39.363Z,10.33
2017-12-10T03:02:13.871Z,10.07
2017-12-10T03:04:50.215Z,8.87
2017-12-10T03:07:29.000Z,10.17
2017-12-10T03:09:59.926Z,8.07
2017-12-10T03:15:23.147Z,9.23
2017-12-10T03:23:33.971Z,8.93
2017-12-10T03:26:02.922Z,9.83
2017-12-10T03:28:31.809Z,9.67
2017-12-10T03:31:00.718Z,8.63
2017-12-10T03:36:30.301Z,7.17
2017-12-10T03:38:59.267Z,6.27
2017-12-10T03:41:34.425Z,7.10
2017-12-10T03:44:03.415Z,7.30
2017-12-10T03:46:39.667Z,7.30
2017-12-10T03:49:08.579Z,6.80
2017-12-10T03:51:48.305Z,7.67
2017-12-10T03:54:17.325Z,7.73
2017-12-10T03:56:54.468Z,8.30
2017-12-10T03:59:24.409Z,8.57
2017-12-10T04:04:52.847Z,8.13
2017-12-10T04:07:22.723Z,9.37
2017-12-10T04:09:54.733Z,9.97
2017-12-10T04:15:24.533Z,10.03
2017-12-10T04:20:54.991Z,10.93
2017-12-10T04:23:34.031Z,10.73
2017-12-10T04:26:10.893Z,12.10
2017-12-10T04:28:39.809Z,14.27
2017-12-10T04:31:21.195Z,12.87
2017-12-10T04:33:50.110Z,11.97
2017-12-10T04:36:22.105Z,11.07
2017-12-10T04:38:54.524Z,10.87
2017-12-10T04:41:23.454Z,10.53
2017-12-10T04:44:05.625Z,11.27
2017-12-10T04:46:47.427Z,11.57
2017-12-10T04:49:16.333Z,11.83
2017-12-10T04:51:45.215Z,11.63
2017-12-10T04:54:20.987Z,11.67
2017-12-10T04:57:00.461Z,11.27
2017-12-10T04:59:43.859Z,11.10
2017-12-10T05:02:19.943Z,11.07
2017-12-10T05:04:59.036Z,10.50
2017-12-10T05:07:38.531Z,13.17
2017-12-10T05:10:24.695Z,14.47
2017-12-10T05:12:54.782Z,14.47
2017-12-10T05:15:23.751Z,13.33
2017-12-10T05:17:53.620Z,14.07
2017-12-10T05:20:25.904Z,13.23
2017-12-10T05:23:07.256Z,12.27
2017-12-10T05:25:37.257Z,12.97
2017-12-10T05:28:06.196Z,12.30
2017-12-10T05:30:50.173Z,13.37
2017-12-10T05:33:36.018Z,14.73
2017-12-10T05:36:06.929Z,13.07
2017-12-10T05:38:36.834Z,14.40
2017-12-10T05:41:10.444Z,14.63
2017-12-10T05:43:49.670Z,15.20
2017-12-10T05:46:19.574Z,14.93
2017-12-10T05:48:48.493Z,15.03
2017-12-10T05:51:24.522Z,13.97
2017-12-10T05:53:53.449Z,14.40
2017-12-10T06:02:01.592Z,14.97
2017-12-10T06:04:40.962Z,16.37
2017-12-10T06:07:09.855Z,17.63
2017-12-10T06:09:45.699Z,19.30
2017-12-10T06:12:21.294Z,20.13
2017-12-10T06:14:50.215Z,20.37
2017-12-10T06:17:19.138Z,19.77
2017-12-10T06:19:56.372Z,19.07
2017-12-10T06:22:28.676Z,20.63
2017-12-10T06:25:00.693Z,20.53
2017-12-10T06:27:29.644Z,18.00
2017-12-10T06:30:11.042Z,18.20
2017-12-10T06:32:46.103Z,18.57
2017-12-10T06:35:17.047Z,20.33
2017-12-10T06:37:45.972Z,19.67
2017-12-10T06:43:06.408Z,21.70
2017-12-10T06:45:45.722Z,24.33
2017-12-10T06:48:15.640Z,32.03
2017-12-10T06:50:48.390Z,34.53
2017-12-10T06:53:27.046Z,29.57
2017-12-10T06:55:56.023Z,24.27
2017-12-10T06:58:24.972Z,23.23
2017-12-10T07:00:54.925Z,21.47
2017-12-10T07:03:23.839Z,20.30
2017-12-10T07:05:53.718Z,20.27
2017-12-10T07:08:32.427Z,20.63
2017-12-10T07:11:05.383Z,21.97
2017-12-10T07:13:45.846Z,22.20
2017-12-10T07:16:27.195Z,21.43
2017-12-10T07:18:56.230Z,24.07
2017-12-10T07:21:26.116Z,25.50
2017-12-10T07:23:55.041Z,24.00
2017-12-10T07:26:24.028Z,23.67
2017-12-10T07:28:52.923Z,23.23
2017-12-10T07:31:21.889Z,20.13
2017-12-10T07:33:50.823Z,19.87
2017-12-10T07:36:20.033Z,19.07
2017-12-10T07:38:49.911Z,19.90
2017-12-10T07:41:18.855Z,19.07
2017-12-10T07:43:47.780Z,18.77
2017-12-10T07:46:16.681Z,17.47
2017-12-10T07:48:46.786Z,17.57
2017-12-10T07:51:15.689Z,19.27
2017-12-10T07:53:45.556Z,15.27
2017-12-10T07:56:14.531Z,14.27
2017-12-10T07:58:43.417Z,13.77
2017-12-10T08:01:13.236Z,12.90
2017-12-10T08:03:42.172Z,13.87
2017-12-10T08:06:11.080Z,12.93
2017-12-10T08:08:40.101Z,12.03
2017-12-10T08:11:09.117Z,12.83
2017-12-10T08:13:38.434Z,13.97
2017-12-10T08:16:07.539Z,13.07
2017-12-10T08:18:37.034Z,13.70
2017-12-10T08:21:05.953Z,15.43
2017-12-10T08:23:34.872Z,12.60
2017-12-10T08:26:04.537Z,12.17
2017-12-10T08:28:36.768Z,13.83
2017-12-10T08:31:05.775Z,14.07
2017-12-10T08:33:34.878Z,15.47
2017-12-10T08:36:03.792Z,14.90
2017-12-10T08:38:32.720Z,14.07
2017-12-10T08:41:01.681Z,13.77
2017-12-10T08:43:30.583Z,14.47
2017-12-10T08:45:59.515Z,15.10
2017-12-10T08:48:28.407Z,16.60
2017-12-10T08:50:57.291Z,16.40
2017-12-10T08:53:26.215Z,16.23
2017-12-10T08:55:55.113Z,15.93
2017-12-10T08:58:24.015Z,16.03
2017-12-10T09:00:52.968Z,17.83
2017-12-10T09:03:21.847Z,18.67
2017-12-10T09:05:50.754Z,15.33
2017-12-10T09:08:19.743Z,15.77
2017-12-10T09:10:48.620Z,15.87
2017-12-10T09:13:17.540Z,16.63
2017-12-10T09:15:48.507Z,16.27
2017-12-10T09:18:17.425Z,15.27
2017-12-10T09:20:46.472Z,14.03
2017-12-10T09:23:15.416Z,14.47
2017-12-10T09:25:44.372Z,13.73
2017-12-10T09:28:16.863Z,12.37
2017-12-10T09:30:45.815Z,13.10
2017-12-10T09:33:14.724Z,12.27
2017-12-10T09:35:43.668Z,11.83
2017-12-10T09:38:12.554Z,11.10
2017-12-10T09:40:41.437Z,10.97
2017-12-10T09:43:10.366Z,11.83
2017-12-10T09:45:39.294Z,9.30
2017-12-10T09:48:08.244Z,12.37
2017-12-10T09:50:37.240Z,10.57
2017-12-10T09:53:06.131Z,11.37
2017-12-10T09:55:35.052Z,11.90
2017-12-10T09:58:04.001Z,10.17
2017-12-10T10:00:32.899Z,10.73
2017-12-10T10:03:01.826Z,10.33
2017-12-10T10:05:30.766Z,12.30
2017-12-10T10:08:00.656Z,12.60
2017-12-10T10:10:29.572Z,15.33
2017-12-10T10:12:58.517Z,11.87
2017-12-10T10:15:27.616Z,12.60
2017-12-10T10:17:56.514Z,11.37
2017-12-10T10:20:25.486Z,11.50
2017-12-10T10:22:54.368Z,11.43
2017-12-10T10:25:23.262Z,9.53
2017-12-10T10:27:52.202Z,11.83
2017-12-10T10:30:21.155Z,9.67
2017-12-10T10:32:50.101Z,9.70
2017-12-10T10:35:19.052Z,10.23
2017-12-10T10:37:47.995Z,9.57
2017-12-10T10:40:21.239Z,9.03
2017-12-10T10:42:50.144Z,9.20
2017-12-10T10:45:22.646Z,8.07
2017-12-10T10:47:51.610Z,8.50
2017-12-10T10:50:20.496Z,7.77
2017-12-10T10:52:49.398Z,7.90
2017-12-10T10:55:30.996Z,7.73
2017-12-10T10:58:03.273Z,7.17
2017-12-10T11:00:33.174Z,7.00
2017-12-10T11:03:12.477Z,7.77
2017-12-10T11:05:41.366Z,7.30
2017-12-10T11:08:18.250Z,8.30
2017-12-10T11:10:49.136Z,7.83
2017-12-10T11:13:28.952Z,9.70
2017-12-10T11:16:01.280Z,7.30
2017-12-10T11:18:32.286Z,6.10
2017-12-10T11:21:02.148Z,5.97
2017-12-10T11:23:35.902Z,6.77
2017-12-10T11:26:07.976Z,9.20
2017-12-10T11:28:41.826Z,7.37
2017-12-10T11:31:13.888Z,9.97
2017-12-10T11:33:42.882Z,7.60
2017-12-10T11:36:20.406Z,7.97
2017-12-10T11:38:49.386Z,7.70
2017-12-10T11:41:36.828Z,7.17
2017-12-10T11:44:05.791Z,6.27
2017-12-10T11:46:44.930Z,5.73
2017-12-10T11:52:01.900Z,6.80
2017-12-10T11:54:30.812Z,6.40
2017-12-10T11:56:59.708Z,6.87
2017-12-10T12:22:11.700Z,8.03
2017-12-10T12:24:40.576Z,10.27
2017-12-10T12:27:09.463Z,6.77
2017-12-10T12:30:03.807Z,5.43
2017-12-10T12:32:30.486Z,6.03
2017-12-10T12:34:57.212Z,8.60
2017-12-10T12:37:23.927Z,7.07
2017-12-10T12:39:50.624Z,7.50
2017-12-10T13:15:35.680Z,5.27
2017-12-10T13:18:02.380Z,6.27
2017-12-10T13:20:29.086Z,7.20
2017-12-10T13:22:55.873Z,4.60
2017-12-10T13:25:22.580Z,5.40
2017-12-10T13:27:49.278Z,7.57
2017-12-10T13:30:15.997Z,10.17
2017-12-10T13:35:28.358Z,10.83
2017-12-10T13:38:05.521Z,10.70
2017-12-10T13:40:39.105Z,10.53
2017-12-10T13:43:07.781Z,9.70
2017-12-10T13:45:34.464Z,9.13
2017-12-10T13:48:01.206Z,9.17
2017-12-10T13:50:27.906Z,8.27
2017-12-10T13:52:54.618Z,8.67
2017-12-10T13:55:21.406Z,9.53
2017-12-10T13:57:48.475Z,9.47
2017-12-10T14:00:15.178Z,9.40
2017-12-10T14:02:46.382Z,8.70
2017-12-10T14:05:13.118Z,9.33
2017-12-10T14:07:54.232Z,9.97
2017-12-10T14:10:31.140Z,12.07
2017-12-10T14:13:14.708Z,12.93
2017-12-10T14:15:41.426Z,17.27
2017-12-10T14:18:08.228Z,11.13
2017-12-10T14:20:34.937Z,10.57
2017-12-10T14:23:01.660Z,10.10
2017-12-10T14:25:41.072Z,11.57
2017-12-10T14:28:07.786Z,9.93
2017-12-10T14:30:34.524Z,9.87
2017-12-10T14:33:01.352Z,9.40
2017-12-10T14:35:28.072Z,9.97
2017-12-10T14:37:55.108Z,12.37
2017-12-10T14:40:21.812Z,13.97
2017-12-10T14:42:48.508Z,15.67
2017-12-10T14:45:15.254Z,13.97
2017-12-10T14:47:43.022Z,12.93
2017-12-10T14:50:09.722Z,11.47
2017-12-10T14:52:36.428Z,10.63
2017-12-10T14:55:03.126Z,8.10
2017-12-10T14:57:29.816Z,8.37
2017-12-10T14:59:56.526Z,9.73
2017-12-10T15:02:23.256Z,10.93
2017-12-10T15:04:49.992Z,12.10
2017-12-10T15:07:16.692Z,10.63
2017-12-10T15:09:46.471Z,9.67
2017-12-10T15:12:13.154Z,10.97
2017-12-10T15:14:39.856Z,10.50
2017-12-10T15:17:06.634Z,10.70
2017-12-10T15:19:33.318Z,11.67
2017-12-10T15:22:00.015Z,14.27
2017-12-10T15:24:26.750Z,14.20
2017-12-10T15:26:53.442Z,15.33
2017-12-10T15:29:20.156Z,15.63
2017-12-10T15:31:46.886Z,15.53
2017-12-10T15:34:28.583Z,14.57
2017-12-10T15:36:55.358Z,16.50
2017-12-10T15:39:22.088Z,18.00
2017-12-10T15:41:48.788Z,19.03
2017-12-10T15:44:20.000Z,19.37
2017-12-10T15:46:47.692Z,22.97
2017-12-10T15:49:14.390Z,19.30
2017-12-10T15:51:41.136Z,22.80
2017-12-10T15:54:07.826Z,20.57
2017-12-10T15:56:34.524Z,19.53
2017-12-10T15:59:01.264Z,19.10
2017-12-10T16:01:27.970Z,18.60
2017-12-10T16:03:54.806Z,19.17
2017-12-10T16:06:21.523Z,18.20
2017-12-10T16:08:48.211Z,18.30
2017-12-10T16:11:14.902Z,19.17
2017-12-10T16:13:41.636Z,19.57
2017-12-10T16:16:08.330Z,19.37
2017-12-10T16:18:35.038Z,19.13
2017-12-10T16:21:01.799Z,17.23
2017-12-10T16:23:28.533Z,13.90
2017-12-10T16:25:55.253Z,17.13
2017-12-10T16:28:22.038Z,17.23
2017-12-10T16:30:48.735Z,17.33
2017-12-10T16:33:15.458Z,15.37
2017-12-10T16:35:42.182Z,14.73
2017-12-10T16:38:08.890Z,11.87
2017-12-10T16:40:36.827Z,10.10
2017-12-10T16:43:03.542Z,8.57
2017-12-10T16:45:30.234Z,9.63
2017-12-10T16:47:56.948Z,9.07
2017-12-10T16:50:23.679Z,9.27
2017-12-10T16:52:50.416Z,9.30
2017-12-10T16:55:17.106Z,8.83
2017-12-10T16:57:43.846Z,9.83
2017-12-10T17:00:10.558Z,10.20
2017-12-10T17:02:37.298Z,11.53
2017-12-10T17:05:04.079Z,13.07
2017-12-10T17:07:31.850Z,14.43
2017-12-10T17:09:58.618Z,12.23
2017-12-10T17:12:25.367Z,9.83
2017-12-10T17:14:52.063Z,9.93
2017-12-10T17:17:18.758Z,10.30
2017-12-10T17:19:57.323Z,7.53
2017-12-10T17:22:24.015Z,8.70
2017-12-10T17:24:53.278Z,9.83
2017-12-10T17:27:20.016Z,8.83
2017-12-10T17:29:46.717Z,9.70
2017-12-10T17:32:13.421Z,8.80
2017-12-10T17:34:40.241Z,9.47
2017-12-10T17:37:06.949Z,8.87
2017-12-10T17:39:33.681Z,9.23
2017-12-10T17:42:00.391Z,10.70
2017-12-10T17:44:27.068Z,8.07
2017-12-10T17:46:53.759Z,9.87
2017-12-10T17:49:20.555Z,7.80
2017-12-10T17:51:47.336Z,9.10
2017-12-10T17:54:14.082Z,6.67
2017-12-10T17:56:41.872Z,8.17
2017-12-10T17:59:08.573Z,6.83
2017-12-10T18:01:35.418Z,7.27
2017-12-10T18:04:02.181Z,7.07
2017-12-10T18:06:28.954Z,8.13
2017-12-10T18:08:55.677Z,6.90
2017-12-10T18:11:37.707Z,7.70
2017-12-10T18:14:04.751Z,9.60
2017-12-10T18:16:31.704Z,7.30
2017-12-10T18:18:58.467Z,8.17
2017-12-10T18:21:27.180Z,8.97
2017-12-10T18:24:02.151Z,8.90
2017-12-10T18:26:28.869Z,9.80
2017-12-10T18:28:55.578Z,11.07
2017-12-10T18:31:32.776Z,11.88
2017-12-10T18:34:09.456Z,10.95
2017-12-10T18:36:39.612Z,10.68
2017-12-10T18:39:07.367Z,8.57
2017-12-10T18:41:34.073Z,9.18
2017-12-10T18:44:00.821Z,10.20
2017-12-10T18:46:27.584Z,11.57
2017-12-10T18:51:43.405Z,10.48
2017-12-10T18:54:14.311Z,8.50
2017-12-10T18:56:41.548Z,8.98
2017-12-10T19:01:53.747Z,8.27
2017-12-10T19:04:30.400Z,8.07
2017-12-10T19:12:34.291Z,10.47
2017-12-10T19:23:28.864Z,6.07
2017-12-10T19:25:55.599Z,5.57
2017-12-10T19:28:22.373Z,7.00
2017-12-10T19:30:49.080Z,6.70
2017-12-10T19:33:15.807Z,6.30
2017-12-10T19:35:42.524Z,6.53
2017-12-10T19:38:09.213Z,6.87
2017-12-10T19:40:35.932Z,5.60
2017-12-10T19:48:40.992Z,5.70
2017-12-10T19:51:07.889Z,7.27
2017-12-10T19:53:34.614Z,5.60
2017-12-10T19:56:01.341Z,6.20
2017-12-10T19:58:37.915Z,4.83
2017-12-10T20:01:10.724Z,4.70
2017-12-10T20:03:37.614Z,5.03
2017-12-10T20:09:03.979Z,4.87
2017-12-10T20:11:31.726Z,5.30
2017-12-10T20:14:15.602Z,5.53
2017-12-10T20:16:42.415Z,6.77
2017-12-10T20:19:23.908Z,5.70
2017-12-10T20:24:37.713Z,5.30
2017-12-10T20:27:21.515Z,6.47
2017-12-10T20:29:48.540Z,8.07
2017-12-10T20:37:46.737Z,7.17
2017-12-10T20:40:22.171Z,9.10
2017-12-10T20:43:05.483Z,8.80
2017-12-10T20:45:32.163Z,7.93
2017-12-10T20:53:41.141Z,8.37
2017-12-10T20:59:05.837Z,8.10
2017-12-10T21:01:38.389Z,8.00
2017-12-10T21:04:23.458Z,6.33
2017-12-10T21:06:50.195Z,7.40
2017-12-10T21:09:25.112Z,7.57
2017-12-10T21:11:51.819Z,5.27
2017-12-10T21:14:18.550Z,5.43
2017-12-10T21:16:47.297Z,5.43
2017-12-10T21:22:02.087Z,4.57
2017-12-10T21:24:28.838Z,4.80
2017-12-10T21:27:08.277Z,4.80
2017-12-10T21:29:38.525Z,4.47
2017-12-10T21:35:04.435Z,3.47
2017-12-10T21:37:31.181Z,4.77
2017-12-10T21:39:59.224Z,4.93
2017-12-10T21:42:34.116Z,6.23
2017-12-10T21:45:08.613Z,5.63
2017-12-10T21:47:35.361Z,6.00
2017-12-10T21:50:11.178Z,6.53
2017-12-10T21:52:44.703Z,6.13
2017-12-10T21:55:23.344Z,5.77
2017-12-10T21:57:50.139Z,6.10
2017-12-10T22:00:23.678Z,7.07
2017-12-10T22:03:02.999Z,8.73
2017-12-10T22:05:34.396Z,5.63
2017-12-10T22:08:18.399Z,7.07
2017-12-10T22:10:45.185Z,9.33
2017-12-10T22:13:16.465Z,10.53
2017-12-10T22:15:50.287Z,10.20
2017-12-10T22:18:18.125Z,8.87
2017-12-10T22:20:44.821Z,7.70
2017-12-10T22:23:17.258Z,6.97
2017-12-10T22:25:45.054Z,5.83
2017-12-10T22:31:10.724Z,4.43
2017-12-10T22:33:37.452Z,5.27
2017-12-10T22:36:18.015Z,6.17
2017-12-10T22:39:02.691Z,6.97
2017-12-10T22:41:48.490Z,4.47
2017-12-10T22:50:00.199Z,4.40
2017-12-10T22:52:27.957Z,4.83
2017-12-10T22:55:04.591Z,4.63
2017-12-10T23:05:53.873Z,3.37
2017-12-10T23:08:34.153Z,4.53
2017-12-10T23:13:52.721Z,3.10
2017-12-10T23:16:24.432Z,4.03
2017-12-10T23:21:40.451Z,4.40
2017-12-10T23:26:56.857Z,3.97
2017-12-10T23:29:38.067Z,3.23
2017-12-10T23:40:21.736Z,2.83
2017-12-10T23:42:50.448Z,3.03
2017-12-10T23:45:22.305Z,2.97
2017-12-10T23:50:35.299Z,2.97
2017-12-10T23:53:12.035Z,3.17
2017-12-10T23:55:40.765Z,3.17
2017-12-10T23:58:07.540Z,3.57
